createdAt,value
2018-06-17T00:02:10.537Z,14.90
2018-06-17T00:07:07.696Z,15.00
2018-06-17T00:09:36.058Z,15.00
2018-06-17T00:12:05.197Z,15.00
2018-06-17T00:14:33.954Z,15.00
2018-06-17T00:17:02.355Z,15.10
2018-06-17T00:19:31.881Z,15.10
2018-06-17T00:22:00.225Z,15.30
2018-06-17T00:26:56.942Z,15.10
2018-06-17T00:29:27.389Z,14.80
2018-06-17T00:31:56.954Z,14.90
2018-06-17T00:34:25.601Z,15.00
2018-06-17T00:36:54.415Z,15.00
2018-06-17T00:39:22.942Z,15.00
2018-06-17T00:41:51.297Z,14.90
2018-06-17T00:44:19.675Z,14.80
2018-06-17T00:46:48.390Z,15.00
2018-06-17T00:49:16.740Z,15.10
2018-06-17T00:51:45.343Z,14.90
2018-06-17T00:54:14.028Z,14.90
2018-06-17T00:56:42.406Z,14.80
2018-06-17T00:59:10.746Z,14.80
2018-06-17T01:01:39.423Z,14.90
2018-06-17T01:04:07.802Z,14.80
2018-06-17T01:06:36.173Z,14.80
2018-06-17T01:09:05.883Z,14.80
2018-06-17T01:11:34.320Z,14.90
2018-06-17T01:14:02.771Z,15.00
2018-06-17T01:16:31.605Z,14.90
2018-06-17T01:19:00.704Z,14.80
2018-06-17T01:21:29.159Z,14.80
2018-06-17T01:23:57.817Z,14.70
2018-06-17T01:26:26.197Z,14.60
2018-06-17T01:28:54.557Z,14.70
2018-06-17T01:31:23.506Z,14.60
2018-06-17T01:33:51.915Z,14.60
2018-06-17T01:36:20.301Z,14.60
2018-06-17T01:38:48.669Z,14.60
2018-06-17T01:41:17.394Z,14.60
2018-06-17T01:43:45.778Z,14.60
2018-06-17T01:46:14.171Z,14.70
2018-06-17T01:48:51.086Z,14.50
2018-06-17T01:51:21.483Z,14.50
2018-06-17T01:53:50.386Z,14.40
2018-06-17T01:56:18.754Z,14.40
2018-06-17T01:58:47.598Z,14.50
2018-06-17T02:01:16.017Z,14.80
2018-06-17T02:03:49.907Z,14.80
2018-06-17T02:06:23.961Z,14.80
2018-06-17T02:11:31.270Z,14.70
2018-06-17T02:14:05.075Z,14.50
2018-06-17T02:16:33.515Z,14.60
2018-06-17T02:19:02.318Z,14.50
2018-06-17T02:21:30.788Z,14.60
2018-06-17T02:23:59.258Z,14.60
2018-06-17T02:26:27.663Z,14.60
2018-06-17T02:28:56.551Z,14.50
2018-06-17T02:31:24.893Z,14.50
2018-06-17T02:33:53.522Z,14.50
2018-06-17T02:36:21.866Z,14.50
2018-06-17T02:38:50.260Z,14.50
2018-06-17T02:41:19.018Z,14.50
2018-06-17T02:43:47.520Z,14.50
2018-06-17T02:46:21.341Z,14.60
2018-06-17T02:48:55.488Z,14.70
2018-06-17T02:51:29.228Z,14.90
2018-06-17T02:54:03.461Z,14.60
2018-06-17T02:56:31.783Z,14.70
2018-06-17T02:59:00.105Z,14.70
2018-06-17T03:01:28.756Z,14.50
2018-06-17T03:03:57.219Z,14.60
2018-06-17T03:06:25.556Z,14.60
2018-06-17T03:11:45.072Z,14.70
2018-06-17T03:14:15.862Z,14.70
2018-06-17T03:16:46.254Z,14.70
2018-06-17T03:19:15.089Z,14.70
2018-06-17T03:21:43.420Z,14.70
2018-06-17T03:24:12.152Z,14.80
2018-06-17T03:26:45.955Z,14.80
2018-06-17T03:29:19.788Z,14.70
2018-06-17T03:31:53.494Z,14.70
2018-06-17T03:34:22.237Z,14.60
2018-06-17T03:36:50.606Z,14.60
2018-06-17T03:41:50.333Z,14.50
2018-06-17T03:44:18.698Z,14.60
2018-06-17T03:46:47.030Z,14.60
2018-06-17T03:49:15.604Z,14.60
2018-06-17T03:51:44.287Z,14.70
2018-06-17T03:54:12.640Z,14.60
2018-06-17T03:56:41.030Z,14.60
2018-06-17T03:59:09.920Z,14.60
2018-06-17T04:01:38.293Z,14.50
2018-06-17T04:04:06.663Z,14.60
2018-06-17T04:06:35.322Z,14.80
2018-06-17T04:09:04.753Z,14.70
2018-06-17T04:11:33.105Z,14.70
2018-06-17T04:14:01.833Z,14.70
2018-06-17T04:16:30.173Z,14.90
2018-06-17T04:18:58.501Z,15.00
2018-06-17T04:21:27.264Z,14.80
2018-06-17T04:23:55.608Z,15.00
2018-06-17T04:26:23.942Z,15.20
2018-06-17T04:28:52.795Z,15.40
2018-06-17T04:31:21.236Z,15.50
2018-06-17T04:33:49.591Z,15.60
2018-06-17T04:36:18.377Z,15.70
2018-06-17T04:38:46.728Z,15.60
2018-06-17T04:41:15.080Z,15.80
2018-06-17T04:43:43.837Z,16.10
2018-06-17T04:46:12.140Z,16.70
2018-06-17T04:48:40.515Z,18.10
2018-06-17T04:51:09.240Z,19.50
2018-06-17T04:53:37.546Z,20.50
2018-06-17T04:56:05.934Z,21.10
2018-06-17T04:58:34.713Z,21.60
2018-06-17T05:01:03.090Z,21.50
2018-06-17T05:03:32.309Z,21.80
2018-06-17T05:06:01.027Z,22.20
2018-06-17T05:08:29.371Z,22.30
2018-06-17T05:10:57.692Z,22.30
2018-06-17T05:13:26.371Z,22.80
2018-06-17T05:15:54.769Z,22.40
2018-06-17T05:18:23.098Z,21.70
2018-06-17T05:20:52.630Z,21.00
2018-06-17T05:23:20.965Z,20.90
2018-06-17T05:25:49.296Z,20.70
2018-06-17T05:28:18.054Z,20.50
2018-06-17T05:30:46.370Z,20.20
2018-06-17T05:33:14.737Z,19.70
2018-06-17T05:35:48.888Z,19.80
2018-06-17T05:38:23.740Z,20.10
2018-06-17T05:40:52.573Z,20.60
2018-06-17T05:43:20.948Z,20.70
2018-06-17T05:45:49.357Z,21.20
2018-06-17T05:48:18.015Z,21.10
2018-06-17T05:50:46.339Z,21.20
2018-06-17T05:53:14.700Z,21.00
2018-06-17T05:55:43.483Z,21.20
2018-06-17T05:58:11.777Z,21.60
2018-06-17T06:00:40.132Z,22.70
2018-06-17T06:03:08.877Z,24.00
2018-06-17T06:05:37.202Z,24.30
2018-06-17T06:08:05.717Z,23.90
2018-06-17T06:10:34.600Z,22.90
2018-06-17T06:13:03.076Z,22.70
2018-06-17T06:15:31.425Z,22.60
2018-06-17T06:18:00.049Z,22.30
2018-06-17T06:20:28.449Z,22.10
2018-06-17T06:22:56.809Z,22.20
2018-06-17T06:25:25.399Z,22.40
2018-06-17T06:27:53.740Z,23.00
2018-06-17T06:30:22.112Z,24.10
2018-06-17T06:32:50.932Z,24.90
2018-06-17T06:35:19.307Z,25.00
2018-06-17T06:37:47.699Z,24.80
2018-06-17T06:40:16.525Z,24.00
2018-06-17T06:42:44.888Z,23.30
2018-06-17T06:45:13.250Z,22.70
2018-06-17T06:47:41.988Z,21.80
2018-06-17T06:50:13.377Z,21.20
2018-06-17T06:52:41.714Z,20.30
2018-06-17T06:55:10.777Z,20.20
2018-06-17T07:00:07.136Z,20.00
2018-06-17T07:03:43.769Z,20.00
2018-06-17T07:06:17.933Z,19.90
2018-06-17T07:08:52.207Z,20.60
2018-06-17T07:11:20.527Z,21.60
2018-06-17T07:13:49.041Z,21.80
2018-06-17T07:16:23.200Z,21.80
2018-06-17T07:21:19.257Z,21.70
2018-06-17T07:23:47.697Z,21.60
2018-06-17T07:26:22.256Z,21.50
2018-06-17T07:28:56.614Z,21.50
2018-06-17T07:31:25.100Z,21.50
2018-06-17T07:33:53.281Z,21.70
2018-06-17T07:36:21.713Z,21.70
2018-06-17T07:38:50.159Z,21.70
2018-06-17T07:41:18.309Z,21.90
2018-06-17T07:43:46.445Z,21.90
2018-06-17T07:46:14.936Z,21.80
2018-06-17T07:49:47.636Z,21.80
2018-06-17T07:52:22.589Z,22.50
2018-06-17T07:57:20.186Z,28.10
2018-06-17T07:59:48.868Z,29.20
2018-06-17T08:02:17.778Z,31.10
2018-06-17T08:07:13.895Z,34.20
2018-06-17T08:09:42.131Z,34.70
2018-06-17T08:12:11.717Z,35.30
2018-06-17T08:14:41.158Z,34.20
2018-06-17T08:17:10.215Z,34.40
2018-06-17T08:22:17.434Z,28.80
2018-06-17T08:24:46.460Z,28.90
2018-06-17T08:27:15.437Z,29.40
2018-06-17T08:29:45.038Z,33.30
2018-06-17T08:32:14.136Z,31.70
2018-06-17T08:34:43.401Z,30.00
2018-06-17T08:37:12.784Z,33.00
2018-06-17T08:39:41.917Z,36.00
2018-06-17T08:44:43.360Z,36.80
2018-06-17T08:47:14.676Z,35.90
2018-06-17T08:49:43.701Z,36.40
2018-06-17T08:52:13.046Z,36.10
2018-06-17T08:54:42.045Z,33.80
2018-06-17T08:57:10.957Z,33.60
2018-06-17T08:59:40.546Z,30.00
2018-06-17T09:02:09.511Z,31.70
2018-06-17T09:04:38.552Z,32.90
2018-06-17T09:07:07.868Z,33.90
2018-06-17T09:09:37.039Z,34.60
2018-06-17T09:12:06.106Z,33.10
2018-06-17T09:17:04.220Z,32.90
2018-06-17T09:19:33.179Z,30.40
2018-06-17T09:22:02.526Z,31.10
2018-06-17T09:24:31.637Z,28.40
2018-06-17T09:27:00.665Z,28.30
2018-06-17T09:29:30.216Z,27.70
2018-06-17T09:31:59.190Z,27.30
2018-06-17T09:34:28.100Z,26.50
2018-06-17T09:36:57.436Z,28.50
2018-06-17T09:39:26.443Z,28.80
2018-06-17T09:44:24.006Z,26.70
2018-06-17T09:46:53.039Z,26.20
2018-06-17T09:49:22.237Z,26.20
2018-06-17T09:51:51.229Z,25.20
2018-06-17T09:54:20.343Z,24.30
2018-06-17T09:56:49.415Z,24.00
2018-06-17T09:59:18.706Z,23.90
2018-06-17T10:01:47.790Z,23.90
2018-06-17T10:06:45.938Z,23.90
2018-06-17T10:09:14.942Z,23.80
2018-06-17T10:11:47.543Z,23.70
2018-06-17T10:14:17.358Z,23.70
2018-06-17T10:16:46.637Z,24.40
2018-06-17T10:19:15.922Z,25.60
2018-06-17T10:21:45.433Z,25.40
2018-06-17T10:24:14.736Z,24.80
2018-06-17T10:26:44.349Z,24.40
2018-06-17T10:29:13.577Z,23.90
2018-06-17T10:31:42.852Z,23.80
2018-06-17T10:34:12.325Z,23.70
2018-06-17T10:36:41.678Z,23.50
2018-06-17T10:39:10.884Z,23.50
2018-06-17T10:41:40.606Z,23.30
2018-06-17T10:44:09.831Z,23.40
2018-06-17T10:46:40.678Z,23.60
2018-06-17T10:49:12.070Z,23.40
2018-06-17T10:51:46.730Z,23.80
2018-06-17T10:54:16.549Z,24.70
2018-06-17T10:56:45.889Z,25.50
2018-06-17T10:59:18.776Z,26.40
2018-06-17T11:01:51.818Z,27.10
2018-06-17T11:04:24.363Z,27.30
2018-06-17T11:06:55.783Z,27.10
2018-06-17T11:09:28.150Z,25.80
2018-06-17T11:11:57.572Z,27.10
2018-06-17T11:14:28.616Z,25.50
2018-06-17T11:19:38.954Z,26.40
2018-06-17T11:22:08.521Z,25.80
2018-06-17T11:24:37.705Z,25.90
2018-06-17T11:27:09.114Z,25.10
2018-06-17T11:29:38.625Z,26.10
2018-06-17T11:32:10.924Z,26.70
2018-06-17T11:34:41.294Z,28.00
2018-06-17T11:37:13.553Z,27.90
2018-06-17T11:39:56.079Z,27.90
2018-06-17T11:42:37.637Z,28.00
2018-06-17T11:45:10.684Z,27.60
2018-06-17T11:47:45.176Z,27.40
2018-06-17T11:50:17.198Z,27.80
2018-06-17T11:52:50.330Z,26.80
2018-06-17T11:55:22.445Z,26.00
2018-06-17T11:57:53.868Z,26.40
2018-06-17T12:00:23.746Z,26.30
2018-06-17T12:02:55.158Z,25.40
2018-06-17T12:05:25.610Z,25.10
2018-06-17T12:07:56.066Z,24.70
2018-06-17T12:10:25.458Z,24.40
2018-06-17T12:12:55.054Z,24.30
2018-06-17T12:15:24.714Z,24.80
2018-06-17T12:17:54.201Z,24.80
2018-06-17T12:20:23.559Z,24.80
2018-06-17T12:22:53.066Z,25.00
2018-06-17T12:25:22.345Z,25.30
2018-06-17T12:27:51.954Z,25.90
2018-06-17T12:30:21.541Z,25.50
2018-06-17T12:32:50.814Z,25.00
2018-06-17T12:35:20.312Z,25.40
2018-06-17T12:37:49.861Z,25.40
2018-06-17T12:40:22.041Z,25.60
2018-06-17T12:42:52.317Z,25.70
2018-06-17T12:45:22.130Z,25.50
2018-06-17T12:47:53.531Z,25.60
2018-06-17T12:50:36.974Z,26.10
2018-06-17T12:58:36.241Z,26.70
2018-06-17T13:01:07.505Z,27.40
2018-06-17T13:03:36.878Z,27.60
2018-06-17T13:06:06.279Z,27.30
2018-06-17T13:08:35.854Z,27.60
2018-06-17T13:11:07.759Z,27.20
2018-06-17T13:13:38.565Z,27.60
2018-06-17T13:16:14.926Z,27.60
2018-06-17T13:18:46.148Z,28.50
2018-06-17T13:21:16.017Z,29.10
2018-06-17T13:23:46.296Z,29.20
2018-06-17T13:26:18.708Z,29.20
2018-06-17T13:28:49.729Z,29.00
2018-06-17T13:31:22.919Z,29.00
2018-06-17T13:33:59.346Z,29.10
2018-06-17T13:36:33.169Z,28.00
2018-06-17T13:39:08.463Z,26.80
2018-06-17T13:41:44.307Z,27.10
2018-06-17T13:46:44.579Z,26.70
2018-06-17T13:49:15.054Z,26.90
2018-06-17T13:51:44.685Z,27.60
2018-06-17T13:55:35.634Z,28.10
2018-06-17T13:58:08.238Z,28.50
2018-06-17T14:00:37.553Z,27.30
2018-06-17T14:03:06.774Z,26.20
2018-06-17T14:05:36.349Z,26.00
2018-06-17T14:08:05.765Z,25.20
2018-06-17T14:10:35.034Z,25.50
2018-06-17T14:13:04.764Z,25.60
2018-06-17T14:15:34.273Z,25.70
2018-06-17T14:18:03.577Z,25.90
2018-06-17T14:20:33.396Z,25.60
2018-06-17T14:23:08.930Z,25.40
2018-06-17T14:25:38.180Z,25.70
2018-06-17T14:28:07.881Z,26.00
2018-06-17T14:30:38.820Z,26.00
2018-06-17T14:33:08.010Z,25.60
2018-06-17T14:35:43.606Z,25.40
2018-06-17T14:38:24.707Z,25.30
2018-06-17T14:40:59.625Z,25.40
2018-06-17T14:43:34.757Z,25.40
2018-06-17T14:46:09.549Z,25.50
2018-06-17T14:51:19.990Z,25.30
2018-06-17T14:53:49.599Z,25.30
2018-06-17T14:56:18.920Z,25.70
2018-06-17T14:58:48.824Z,25.90
2018-06-17T15:01:20.802Z,25.90
2018-06-17T15:03:53.371Z,25.40
2018-06-17T15:06:23.078Z,24.90
2018-06-17T15:08:52.270Z,25.20
2018-06-17T15:11:21.514Z,25.00
2018-06-17T15:13:51.464Z,24.80
2018-06-17T15:16:20.959Z,24.50
2018-06-17T15:18:50.185Z,24.30
2018-06-17T15:21:20.991Z,24.40
2018-06-17T15:23:50.608Z,24.70
2018-06-17T15:26:19.949Z,25.00
2018-06-17T15:28:49.489Z,25.20
2018-06-17T15:34:13.867Z,25.40
2018-06-17T15:36:48.905Z,25.30
2018-06-17T15:39:23.537Z,24.80
2018-06-17T15:41:53.080Z,24.50
2018-06-17T15:44:22.347Z,24.50
2018-06-17T15:46:52.547Z,24.50
2018-06-17T15:49:22.074Z,24.10
2018-06-17T15:51:57.229Z,23.90
2018-06-17T15:54:28.752Z,23.60
2018-06-17T15:56:58.089Z,23.20
2018-06-17T16:01:08.216Z,22.50
2018-06-17T16:03:40.607Z,22.20
2018-06-17T16:06:32.089Z,22.20
2018-06-17T16:09:05.389Z,22.30
2018-06-17T16:18:54.358Z,21.60
2018-06-17T16:23:59.720Z,21.80
2018-06-17T16:26:29.544Z,21.60
2018-06-17T16:29:04.517Z,21.70
2018-06-17T16:31:40.909Z,21.70
2018-06-17T16:34:13.902Z,21.20
2018-06-17T16:36:43.335Z,21.40
2018-06-17T16:39:13.560Z,21.60
2018-06-17T16:41:45.001Z,22.00
2018-06-17T16:44:28.546Z,21.80
2018-06-17T16:47:17.146Z,21.60
2018-06-17T16:49:51.521Z,21.80
2018-06-17T16:54:57.185Z,21.80
2018-06-17T16:57:31.887Z,21.70
2018-06-17T17:00:09.645Z,21.50
2018-06-17T17:02:42.820Z,21.10
2018-06-17T17:05:31.018Z,20.90
2018-06-17T17:08:03.153Z,21.00
2018-06-17T17:10:33.714Z,21.10
2018-06-17T17:13:04.063Z,21.00
2018-06-17T17:15:43.775Z,20.70
2018-06-17T17:18:15.859Z,20.80
2018-06-17T17:20:47.008Z,20.90
2018-06-17T17:23:17.614Z,21.40
2018-06-17T17:32:45.362Z,21.60
2018-06-17T17:35:20.767Z,21.40
2018-06-17T17:37:55.851Z,21.40
2018-06-17T17:40:45.861Z,21.20
2018-06-17T17:43:21.065Z,21.30
2018-06-17T17:45:58.091Z,21.00
2018-06-17T17:48:30.684Z,20.50
2018-06-17T17:51:01.502Z,20.70
2018-06-17T17:53:37.508Z,20.70
2018-06-17T17:56:07.569Z,20.70
2018-06-17T17:58:38.869Z,20.60
2018-06-17T18:03:44.890Z,20.50
2018-06-17T18:06:16.149Z,20.60
2018-06-17T18:08:45.787Z,20.60
2018-06-17T18:11:16.031Z,20.60
2018-06-17T18:13:49.848Z,20.80
2018-06-17T18:16:19.671Z,20.80
2018-06-17T18:18:49.620Z,20.90
2018-06-17T18:21:22.174Z,20.80
2018-06-17T18:23:56.362Z,20.60
2018-06-17T18:26:31.082Z,20.20
2018-06-17T18:29:07.410Z,20.00
2018-06-17T18:31:47.827Z,20.20
2018-06-17T18:34:26.178Z,19.90
2018-06-17T18:36:57.997Z,19.80
2018-06-17T18:39:27.413Z,19.60
2018-06-17T18:41:56.690Z,19.50
2018-06-17T18:44:26.765Z,19.40
2018-06-17T18:47:11.160Z,19.30
2018-06-17T18:49:41.457Z,19.50
2018-06-17T18:52:10.864Z,19.70
2018-06-17T18:54:40.509Z,19.60
2018-06-17T18:57:10.294Z,19.40
2018-06-17T18:59:40.112Z,19.10
2018-06-17T19:02:09.706Z,18.80
2018-06-17T19:04:40.629Z,18.70
2018-06-17T19:07:09.863Z,18.50
2018-06-17T19:09:44.571Z,18.60
2018-06-17T19:12:19.875Z,18.50
2018-06-17T19:14:54.702Z,18.50
2018-06-17T19:17:29.838Z,18.50
2018-06-17T19:19:59.396Z,18.60
2018-06-17T19:22:29.204Z,18.50
2018-06-17T19:24:58.433Z,18.10
2018-06-17T19:27:27.753Z,17.90
2018-06-17T19:29:57.300Z,17.90
2018-06-17T19:32:26.504Z,17.80
2018-06-17T19:34:56.344Z,17.40
2018-06-17T19:37:27.257Z,17.50
2018-06-17T19:39:56.803Z,17.50
2018-06-17T19:42:26.054Z,17.50
2018-06-17T19:44:55.673Z,17.30
2018-06-17T19:47:25.023Z,16.90
2018-06-17T19:50:00.414Z,17.30
2018-06-17T19:52:35.459Z,17.50
2018-06-17T19:55:10.003Z,17.60
2018-06-17T19:57:44.670Z,17.70
2018-06-17T20:00:19.182Z,17.60
2018-06-17T20:02:48.782Z,17.80
2018-06-17T20:05:18.556Z,17.70
2018-06-17T20:07:47.892Z,17.40
2018-06-17T20:10:17.776Z,17.10
2018-06-17T20:12:47.286Z,16.80
2018-06-17T20:15:16.577Z,16.90
2018-06-17T20:17:46.573Z,17.00
2018-06-17T20:20:15.853Z,17.00
2018-06-17T20:22:45.278Z,16.60
2018-06-17T20:25:15.008Z,16.60
2018-06-17T20:27:44.649Z,16.90
2018-06-17T20:30:13.928Z,16.70
2018-06-17T20:32:49.020Z,16.50
2018-06-17T20:35:23.643Z,16.60
2018-06-17T20:37:59.086Z,16.60
2018-06-17T20:40:33.773Z,16.50
2018-06-17T20:43:10.709Z,16.70
2018-06-17T20:45:40.123Z,16.60
2018-06-17T20:48:09.483Z,16.50
2018-06-17T20:50:39.585Z,16.30
2018-06-17T20:53:08.940Z,16.50
2018-06-17T20:55:38.645Z,16.30
2018-06-17T20:58:07.953Z,16.30
2018-06-17T21:00:37.341Z,16.60
2018-06-17T21:03:07.051Z,16.80
2018-06-17T21:05:36.477Z,16.70
2018-06-17T21:08:05.792Z,16.40
2018-06-17T21:10:36.488Z,16.20
2018-06-17T21:18:03.881Z,17.10
2018-06-17T21:20:38.894Z,17.10
2018-06-17T21:23:13.519Z,17.40
2018-06-17T21:25:48.319Z,17.40
2018-06-17T21:28:17.938Z,17.20
2018-06-17T21:30:47.183Z,17.40
2018-06-17T21:33:16.393Z,17.40
2018-06-17T21:35:46.085Z,17.40
2018-06-17T21:38:15.334Z,17.30
2018-06-17T21:40:44.739Z,16.70
2018-06-17T21:43:14.388Z,17.00
2018-06-17T21:45:43.643Z,17.10
2018-06-17T21:48:12.904Z,17.10
2018-06-17T21:50:42.524Z,16.90
2018-06-17T21:53:11.792Z,16.30
2018-06-17T21:55:41.334Z,16.10
2018-06-17T21:58:11.007Z,16.20
2018-06-17T22:00:40.602Z,16.40
2018-06-17T22:03:09.914Z,16.50
2018-06-17T22:08:14.186Z,16.40
2018-06-17T22:10:48.800Z,16.20
2018-06-17T22:13:18.732Z,16.00
2018-06-17T22:15:54.469Z,15.90
2018-06-17T22:18:23.767Z,16.00
2018-06-17T22:20:53.288Z,16.00
2018-06-17T22:23:22.709Z,16.30
2018-06-17T22:25:52.369Z,16.50
2018-06-17T22:28:22.101Z,16.50
2018-06-17T22:30:51.351Z,16.50
2018-06-17T22:33:23.351Z,16.70
2018-06-17T22:35:53.001Z,17.00
2018-06-17T22:38:22.286Z,17.20
2018-06-17T22:40:51.546Z,17.20
2018-06-17T22:43:21.074Z,17.20
2018-06-17T22:45:50.598Z,17.20
2018-06-17T22:48:19.782Z,17.20
2018-06-17T22:50:49.460Z,17.20
2018-06-17T22:53:29.915Z,17.20
2018-06-17T22:55:59.237Z,17.20
2018-06-17T23:02:07.310Z,17.00
2018-06-17T23:04:42.122Z,17.00
2018-06-17T23:07:16.708Z,17.00
2018-06-17T23:09:47.798Z,16.90
2018-06-17T23:12:21.384Z,16.80
2018-06-17T23:14:50.822Z,16.90
2018-06-17T23:17:20.070Z,17.00
2018-06-17T23:19:49.607Z,16.80
2018-06-17T23:22:18.808Z,16.90
2018-06-17T23:24:48.199Z,16.90
2018-06-17T23:27:17.529Z,16.90
2018-06-17T23:29:46.714Z,16.90
2018-06-17T23:32:16.245Z,17.10
2018-06-17T23:34:45.734Z,17.20
2018-06-17T23:37:14.969Z,17.00
2018-06-17T23:39:44.329Z,17.00
2018-06-17T23:42:14.014Z,16.90
2018-06-17T23:44:44.114Z,16.60
2018-06-17T23:47:18.632Z,16.40
2018-06-17T23:49:53.630Z,16.30
2018-06-17T23:52:29.037Z,16.10
2018-06-17T23:55:04.151Z,16.20
2018-06-17T23:57:35.459Z,16.20
